Time;durP1;ratioP1;P1;durP2;ratioP2;P2;SDS_P1;SDS_P2;PMS_P1;PMS_P2;Temp;Humidity;BMP_temperature;BMP_pressure;BME280_temperature;BME280_humidity;BME280_pressure;Samples;Min_cycle;Max_cycle;Signal;HPM_P1;HPM_P2
2024/01/25 00:00:51;;;;;;;;;;;;;;;13.51;38.79;100635.47;5076099;28;1972;-45
2024/01/25 00:03:16;;;;;;;;;;;;;;;16.71;36.58;100942.41;5075647;28;1400;-43
2024/01/25 00:05:43;;;;;;;;;;;;;;;17.21;35.50;100936.28;5076083;28;1055;-44
2024/01/25 00:08:08;;;;;;;;;;;;;;;16.17;37.39;100941.66;5075839;28;1109;-45
2024/01/25 00:10:34;;;;;;;;;;;;;;;15.72;38.38;100934.00;5075683;28;1241;-42
2024/01/25 00:12:59;;;;;;;;;;;;;;;15.39;39.20;100934.34;5076128;28;1233;-41
2024/01/25 00:15:25;;;;;;;;;;;;;;;16.58;36.96;100936.25;5075585;28;1143;-40
2024/01/25 00:17:50;;;;;;;;;;;;;;;17.40;35.23;100937.56;5062520;28;1140;-42
2024/01/25 00:20:16;;;;;;;;;;;;;;;16.38;36.80;100928.72;5075629;28;1980;-44
2024/01/25 00:22:41;;;;;;;;;;;;;;;15.81;38.31;100928.13;5075313;28;1090;-43
2024/01/25 00:25:07;;;;;;;;;;;;;;;15.50;38.93;100936.28;5075532;28;1055;-47
2024/01/25 00:27:32;;;;;;;;;;;;;;;16.23;37.52;100938.59;5074392;28;1161;-44
2024/01/25 00:29:58;;;;;;;;;;;;;;;17.40;35.36;100950.03;5075534;28;1094;-40
2024/01/25 00:32:23;;;;;;;;;;;;;;;16.71;36.28;100937.09;5075528;28;1034;-45
2024/01/25 00:34:49;;;;;;;;;;;;;;;16.05;37.46;100935.38;5075735;28;1016;-42
2024/01/25 00:37:15;;;;;;;;;;;;;;;15.67;38.27;100926.38;5075540;28;1155;-40
2024/01/25 00:39:41;;;;;;;;;;;;;;;15.54;38.94;100929.84;5075431;28;1905;-40
2024/01/25 00:42:07;;;;;;;;;;;;;;;16.99;35.93;100924.50;5075909;28;1105;-43
2024/01/25 00:44:32;;;;;;;;;;;;;;;17.13;35.41;100920.03;5075556;28;1102;-44
2024/01/25 00:46:58;;;;;;;;;;;;;;;16.22;37.35;100917.47;5075154;28;1182;-41
2024/01/25 00:49:24;;;;;;;;;;;;;;;15.78;37.98;100925.66;5075725;28;1129;-42
2024/01/25 00:51:49;;;;;;;;;;;;;;;15.52;38.50;100910.53;5075443;28;1121;-41
2024/01/25 00:54:15;;;;;;;;;;;;;;;16.45;37.03;100904.41;5074626;28;1127;-39
2024/01/25 00:56:41;;;;;;;;;;;;;;;17.33;35.20;100885.81;5074894;28;1056;-40
2024/01/25 00:59:06;;;;;;;;;;;;;;;16.33;36.75;100884.88;5075966;28;1074;-44
2024/01/25 01:01:32;;;;;;;;;;;;;;;15.79;38.01;100882.25;5075490;28;1901;-41
2024/01/25 01:03:58;;;;;;;;;;;;;;;15.44;38.95;100875.72;5075193;28;1126;-39
2024/01/25 01:06:23;;;;;;;;;;;;;;;16.81;36.16;100878.00;5076623;28;1134;-43
2024/01/25 01:08:49;;;;;;;;;;;;;;;17.43;34.87;100868.22;5079137;28;1066;-39
2024/01/25 01:11:14;;;;;;;;;;;;;;;16.35;36.82;100865.22;5065516;28;1109;-40
2024/01/25 01:13:40;;;;;;;;;;;;;;;15.79;37.97;100855.75;5079211;28;1031;-41
2024/01/25 01:16:05;;;;;;;;;;;;;;;15.58;38.42;100855.38;5078700;28;1074;-38
2024/01/25 01:18:31;;;;;;;;;;;;;;;16.06;37.88;100849.53;5068938;28;1074;-43
2024/01/25 01:20:57;;;;;;;;;;;;;;;17.31;35.55;100840.72;5074993;28;1879;-41
2024/01/25 01:23:22;;;;;;;;;;;;;;;16.48;36.79;100832.50;5078727;28;1082;-39
2024/01/25 01:25:47;;;;;;;;;;;;;;;15.84;37.89;100829.75;5078432;28;1190;-40
2024/01/25 01:28:13;;;;;;;;;;;;;;;15.59;38.29;100823.47;5078295;28;1026;-42
2024/01/25 01:30:41;;;;;;;;;;;;;;;16.02;37.89;100809.09;5078616;28;1066;-41
2024/01/25 01:33:08;;;;;;;;;;;;;;;17.27;35.53;100814.47;5078088;28;1161;-39
2024/01/25 01:35:33;;;;;;;;;;;;;;;17.02;35.68;100810.00;5078446;28;1135;-42
2024/01/25 01:37:59;;;;;;;;;;;;;;;16.16;37.36;100809.94;5078098;28;1083;-43
2024/01/25 01:40:24;;;;;;;;;;;;;;;15.74;38.12;100800.34;5077921;28;1883;-42
2024/01/25 01:42:50;;;;;;;;;;;;;;;15.47;39.02;100811.88;5069001;28;1149;-41
2024/01/25 01:45:15;;;;;;;;;;;;;;;16.85;36.23;100805.91;5074309;28;1164;-43
2024/01/25 01:47:41;;;;;;;;;;;;;;;17.22;35.51;100793.53;5078415;28;1145;-44
2024/01/25 01:50:06;;;;;;;;;;;;;;;16.24;37.24;100793.44;5075561;28;1142;-45
2024/01/25 01:52:32;;;;;;;;;;;;;;;15.74;38.41;100780.94;5067703;28;1159;-41
2024/01/25 01:54:57;;;;;;;;;;;;;;;15.45;38.97;100783.78;5064678;28;1144;-42
2024/01/25 01:57:23;;;;;;;;;;;;;;;16.82;36.29;100792.84;5068765;28;1051;-41
2024/01/25 01:59:50;;;;;;;;;;;;;;;16.99;35.82;100786.31;5074067;28;1971;-41
2024/01/25 02:02:15;;;;;;;;;;;;;;;16.12;37.30;100792.50;5078011;28;1170;-43
2024/01/25 02:04:41;;;;;;;;;;;;;;;15.73;38.39;100785.38;5077445;28;1137;-45
2024/01/25 02:07:07;;;;;;;;;;;;;;;15.38;38.67;100778.88;5078056;28;1516;-43
2024/01/25 02:09:33;;;;;;;;;;;;;;;16.66;36.82;100769.22;5076684;28;1134;-43
2024/01/25 02:11:59;;;;;;;;;;;;;;;17.41;35.15;100762.91;5076522;28;1142;-43
2024/01/25 02:14:25;;;;;;;;;;;;;;;16.36;36.78;100771.34;5077724;28;1043;-42
2024/01/25 02:16:50;;;;;;;;;;;;;;;15.84;38.22;100765.22;5076616;28;1158;-45
2024/01/25 02:19:16;;;;;;;;;;;;;;;15.77;38.49;100763.00;5074791;28;1089;-41
2024/01/25 02:21:41;;;;;;;;;;;;;;;17.17;35.79;100759.31;5067114;28;1914;-41
2024/01/25 02:24:07;;;;;;;;;;;;;;;16.75;36.12;100751.75;5075228;28;1102;-43
2024/01/25 02:26:32;;;;;;;;;;;;;;;15.92;38.01;100741.66;5066706;28;1194;-44
2024/01/25 02:28:58;;;;;;;;;;;;;;;15.60;38.27;100742.94;5076808;28;1154;-41
2024/01/25 02:31:23;;;;;;;;;;;;;;;15.86;38.24;100737.66;5077179;28;1034;-43
2024/01/25 02:33:49;;;;;;;;;;;;;;;17.21;35.79;100738.69;5076820;28;1129;-44
2024/01/25 02:36:14;;;;;;;;;;;;;;;16.76;36.34;100738.38;5068559;28;1145;-41
2024/01/25 02:38:40;;;;;;;;;;;;;;;15.98;37.71;100735.94;5072600;28;1138;-41
2024/01/25 02:41:05;;;;;;;;;;;;;;;15.63;38.52;100739.25;5076132;28;1917;-43
2024/01/25 02:43:31;;;;;;;;;;;;;;;15.39;39.11;100729.38;5077231;28;1221;-43
2024/01/25 02:45:56;;;;;;;;;;;;;;;16.80;36.57;100722.22;5077269;28;1142;-44
2024/01/25 02:48:22;;;;;;;;;;;;;;;17.12;35.62;100716.28;5077262;28;1210;-44
2024/01/25 02:50:47;;;;;;;;;;;;;;;16.20;37.27;100718.50;5076632;28;1163;-43
2024/01/25 02:53:12;;;;;;;;;;;;;;;15.65;38.66;100714.31;5076862;28;1031;-44
2024/01/25 02:55:38;;;;;;;;;;;;;;;15.47;38.71;100707.63;5077164;28;1074;-47
2024/01/25 02:58:03;;;;;;;;;;;;;;;16.01;37.99;100713.69;5076903;28;1166;-46
2024/01/25 03:00:29;;;;;;;;;;;;;;;17.25;35.71;100708.22;5076338;28;1902;-42
2024/01/25 03:02:55;;;;;;;;;;;;;;;16.84;36.09;100702.41;5073961;28;1055;-44
2024/01/25 03:05:20;;;;;;;;;;;;;;;15.99;37.86;100697.00;5066147;28;1090;-45
2024/01/25 03:07:45;;;;;;;;;;;;;;;15.61;38.61;100696.94;5075787;28;1164;-42
2024/01/25 03:10:11;;;;;;;;;;;;;;;15.72;38.38;100676.75;5076246;28;1101;-45
2024/01/25 03:12:36;;;;;;;;;;;;;;;17.20;35.64;100676.69;5075200;28;1221;-44
2024/01/25 03:15:02;;;;;;;;;;;;;;;16.91;36.04;100662.94;5064971;28;1222;-45
2024/01/25 03:17:28;;;;;;;;;;;;;;;16.13;37.58;100658.88;5070910;28;1035;-44
2024/01/25 03:19:54;;;;;;;;;;;;;;;15.63;38.59;100654.41;5076610;28;2056;-43
2024/01/25 03:22:19;;;;;;;;;;;;;;;15.69;38.44;100656.63;5076004;28;1086;-43
2024/01/25 03:24:45;;;;;;;;;;;;;;;17.11;35.96;100658.78;5076625;28;888;-44
2024/01/25 03:27:13;;;;;;;;;;;;;;;16.84;36.09;100659.91;5076116;28;1062;-45
2024/01/25 03:29:43;;;;;;;;;;;;;;;15.97;37.55;100653.78;5075339;28;1421;-46
2024/01/25 03:32:09;;;;;;;;;;;;;;;15.64;38.21;100649.00;5075633;28;1122;-45
2024/01/25 03:34:34;;;;;;;;;;;;;;;16.25;37.47;100649.16;5076458;28;1178;-40
2024/01/25 03:37:00;;;;;;;;;;;;;;;17.36;35.41;100636.47;5076285;28;1145;-46
2024/01/25 03:39:25;;;;;;;;;;;;;;;16.47;36.90;100645.78;5067613;28;1894;-43
2024/01/25 03:41:51;;;;;;;;;;;;;;;15.85;37.86;100639.63;5070494;28;1083;-42
2024/01/25 03:44:16;;;;;;;;;;;;;;;15.58;38.44;100635.31;5076364;28;1085;-38
2024/01/25 03:46:42;;;;;;;;;;;;;;;16.73;36.69;100644.78;5075675;28;1145;-38
2024/01/25 03:49:07;;;;;;;;;;;;;;;17.47;35.06;100642.75;5068451;28;1026;-42
2024/01/25 03:51:33;;;;;;;;;;;;;;;16.39;36.98;100640.19;5070490;28;1146;-43
2024/01/25 03:53:58;;;;;;;;;;;;;;;15.85;38.01;100640.44;5067499;28;899;-42
2024/01/25 03:56:24;;;;;;;;;;;;;;;15.57;38.49;100652.16;5070734;28;1139;-41
2024/01/25 03:58:49;;;;;;;;;;;;;;;16.05;37.79;100653.28;5076132;28;1066;-43
2024/01/25 04:01:15;;;;;;;;;;;;;;;17.28;35.49;100648.66;5075289;28;1978;-41
2024/01/25 04:03:41;;;;;;;;;;;;;;;16.75;36.04;100648.16;5076065;28;1166;-38
2024/01/25 04:06:06;;;;;;;;;;;;;;;16.02;37.63;100641.91;5075714;28;1117;-45
2024/01/25 04:08:32;;;;;;;;;;;;;;;15.67;38.58;100650.56;5075929;28;1117;-41
2024/01/25 04:10:57;;;;;;;;;;;;;;;16.30;37.39;100656.78;5076462;28;1162;-43
2024/01/25 04:13:23;;;;;;;;;;;;;;;17.34;35.12;100659.69;5076253;28;1046;-41
2024/01/25 04:15:48;;;;;;;;;;;;;;;16.38;36.89;100671.19;5075506;28;1174;-40
2024/01/25 04:18:14;;;;;;;;;;;;;;;15.82;37.72;100667.19;5075708;28;895;-41
2024/01/25 04:20:41;;;;;;;;;;;;;;;15.52;38.46;100661.31;5062116;28;1909;-43
2024/01/25 04:23:06;;;;;;;;;;;;;;;16.84;36.31;100657.25;5075562;28;1062;-43
2024/01/25 04:25:32;;;;;;;;;;;;;;;17.25;35.28;100655.06;5075542;28;1107;-46
2024/01/25 04:27:57;;;;;;;;;;;;;;;16.19;37.17;100661.06;5075858;28;1141;-42
2024/01/25 04:30:23;;;;;;;;;;;;;;;15.80;37.82;100658.50;5075243;28;1109;-42
2024/01/25 04:32:48;;;;;;;;;;;;;;;15.40;39.17;100657.69;5075606;28;1252;-43
2024/01/25 04:35:14;;;;;;;;;;;;;;;16.65;36.54;100662.13;5075607;28;1047;-46
2024/01/25 04:37:40;;;;;;;;;;;;;;;17.43;35.12;100667.91;5062952;28;1131;-46
2024/01/25 04:40:06;;;;;;;;;;;;;;;16.36;36.87;100670.47;5077120;28;1990;-43
2024/01/25 04:42:31;;;;;;;;;;;;;;;15.83;38.07;100679.47;5079049;28;907;-44
2024/01/25 04:44:57;;;;;;;;;;;;;;;15.53;38.63;100683.38;5079305;28;1101;-43
2024/01/25 04:47:22;;;;;;;;;;;;;;;16.24;37.30;100684.63;5068807;28;1127;-45
2024/01/25 04:49:48;;;;;;;;;;;;;;;17.38;35.32;100678.91;5079556;28;1166;-43
2024/01/25 04:52:13;;;;;;;;;;;;;;;16.63;36.50;100680.00;5079428;28;1238;-39
2024/01/25 04:54:39;;;;;;;;;;;;;;;15.98;37.62;100687.34;5078541;28;893;-43
2024/01/25 04:57:07;;;;;;;;;;;;;;;15.59;38.57;100692.69;5079206;28;1141;-46
2024/01/25 04:59:33;;;;;;;;;;;;;;;16.15;37.62;100691.44;5079130;28;1984;-40
2024/01/25 05:01:59;;;;;;;;;;;;;;;17.35;35.26;100681.81;5065770;28;1086;-42
2024/01/25 05:04:24;;;;;;;;;;;;;;;16.98;35.60;100678.28;5068797;28;1205;-42
2024/01/25 05:06:50;;;;;;;;;;;;;;;16.08;37.31;100675.09;5071447;28;1050;-43
2024/01/25 05:09:15;;;;;;;;;;;;;;;15.73;38.35;100668.69;5072547;28;980;-44
2024/01/25 05:11:41;;;;;;;;;;;;;;;15.47;38.48;100675.81;5078697;28;984;-47
2024/01/25 05:14:06;;;;;;;;;;;;;;;16.46;36.99;100672.44;5078616;28;1023;-42
2024/01/25 05:16:32;;;;;;;;;;;;;;;17.44;35.04;100672.25;5065652;28;1095;-40
2024/01/25 05:18:57;;;;;;;;;;;;;;;16.65;36.56;100672.75;5064956;28;890;-44
2024/01/25 05:21:23;;;;;;;;;;;;;;;17.47;34.90;100669.34;5077999;28;1983;-41
2024/01/25 05:23:48;;;;;;;;;;;;;;;15.76;38.13;100681.75;5078377;28;2469;-38
2024/01/25 05:26:15;;;;;;;;;;;;;;;15.13;39.32;100679.00;5065116;28;1008;-43
2024/01/25 05:28:40;;;;;;;;;;;;;;;16.09;38.06;100675.97;5078405;28;1637;-42
2024/01/25 05:31:12;;;;;;;;;;;;;;;15.29;39.33;100668.19;5077614;28;907;-42
2024/01/25 05:33:38;;;;;;;;;;;;;;;15.35;39.56;100659.00;5077943;28;1044;-43
2024/01/25 05:36:03;;;;;;;;;;;;;;;16.24;36.97;100668.69;5077958;28;1148;-40
2024/01/25 05:38:29;;;;;;;;;;;;;;;15.12;39.72;100658.75;5077958;28;1123;-38
2024/01/25 05:40:54;;;;;;;;;;;;;;;15.79;38.39;100660.31;5078149;28;1913;-40
2024/01/25 05:43:20;;;;;;;;;;;;;;;16.01;37.86;100672.06;5077476;28;933;-42
2024/01/25 05:45:46;;;;;;;;;;;;;;;15.05;39.34;100663.63;5077687;28;1008;-41
2024/01/25 05:48:12;;;;;;;;;;;;;;;16.91;35.97;100660.28;5077933;28;1158;-41
2024/01/25 05:50:38;;;;;;;;;;;;;;;15.63;38.41;100673.78;5077496;28;1055;-44
2024/01/25 05:53:03;;;;;;;;;;;;;;;14.96;39.80;100680.13;5063811;28;1054;-42
2024/01/25 05:55:29;;;;;;;;;;;;;;;15.83;38.37;100683.97;5077183;28;1796;-41
2024/01/25 05:57:54;;;;;;;;;;;;;;;16.16;37.27;100687.84;5077446;28;1151;-40
2024/01/25 06:00:20;;;;;;;;;;;;;;;15.13;39.22;100676.34;5077632;28;1905;-39
2024/01/25 06:02:45;;;;;;;;;;;;;;;16.87;36.22;100667.63;5077337;28;1098;-40
2024/01/25 06:05:11;;;;;;;;;;;;;;;15.82;37.85;100661.88;5077608;28;1417;-39
2024/01/25 06:07:37;;;;;;;;;;;;;;;15.12;39.51;100667.56;5064414;28;938;-43
2024/01/25 06:10:03;;;;;;;;;;;;;;;16.74;36.47;100665.06;5083131;28;1098;-42
2024/01/25 06:12:29;;;;;;;;;;;;;;;15.99;37.23;100670.47;5083416;28;1105;-40
2024/01/25 06:14:54;;;;;;;;;;;;;;;15.20;39.50;100672.31;5077449;28;980;-41
2024/01/25 06:17:20;;;;;;;;;;;;;;;14.89;40.12;100677.06;5077139;28;1011;-42
2024/01/25 06:19:45;;;;;;;;;;;;;;;16.38;36.84;100675.66;5076770;28;1975;-45
2024/01/25 06:22:12;;;;;;;;;;;;;;;15.31;39.13;100684.84;5077677;28;1027;-42
2024/01/25 06:24:38;;;;;;;;;;;;;;;17.36;35.52;100694.13;5065874;28;2125;-42
2024/01/25 06:27:03;;;;;;;;;;;;;;;16.21;36.96;100693.66;5076851;28;1038;-39
2024/01/25 06:29:29;;;;;;;;;;;;;;;15.32;39.02;100689.19;5076941;28;1078;-42
2024/01/25 06:31:54;;;;;;;;;;;;;;;14.97;39.76;100697.72;5076851;28;964;-44
2024/01/25 06:34:20;;;;;;;;;;;;;;;17.02;36.16;100690.41;5076868;28;1201;-43
2024/01/25 06:36:45;;;;;;;;;;;;;;;15.69;38.21;100690.22;5076523;28;1162;-42
2024/01/25 06:39:11;;;;;;;;;;;;;;;15.17;39.53;100705.19;5076891;28;1007;-42
2024/01/25 06:41:36;;;;;;;;;;;;;;;16.69;36.59;100689.31;5076984;28;1914;-40
2024/01/25 06:44:02;;;;;;;;;;;;;;;15.33;38.80;100684.75;5071141;28;1026;-43
2024/01/25 06:46:28;;;;;;;;;;;;;;;17.00;36.28;100683.50;5069190;28;1480;-44
2024/01/25 06:48:53;;;;;;;;;;;;;;;16.24;37.31;100681.97;5070581;28;1093;-43
2024/01/25 06:51:19;;;;;;;;;;;;;;;15.36;39.04;100680.09;5069236;28;1034;-41
2024/01/25 06:53:45;;;;;;;;;;;;;;;16.03;38.07;100672.78;5076492;28;2291;-45
2024/01/25 06:56:10;;;;;;;;;;;;;;;16.37;36.76;100665.97;5076467;28;926;-42
2024/01/25 06:58:36;;;;;;;;;;;;;;;15.33;39.23;100660.88;5062985;28;1210;-39
2024/01/25 07:01:01;;;;;;;;;;;;;;;15.03;39.58;100655.78;5076744;28;1983;-44
2024/01/25 07:03:27;;;;;;;;;;;;;;;15.14;39.95;100652.41;5074236;28;1120;-43
2024/01/25 07:05:52;;;;;;;;;;;;;;;16.67;36.57;100655.84;5076413;28;1084;-42
2024/01/25 07:08:18;;;;;;;;;;;;;;;15.19;39.11;100662.69;5075643;28;1167;-43
2024/01/25 07:10:44;;;;;;;;;;;;;;;14.88;40.02;100662.13;5076215;28;1196;-39
2024/01/25 07:13:09;;;;;;;;;;;;;;;16.99;36.04;100669.38;5076046;28;1015;-43
2024/01/25 07:15:35;;;;;;;;;;;;;;;15.61;38.52;100666.91;5063958;28;1034;-44
2024/01/25 07:18:00;;;;;;;;;;;;;;;17.02;36.25;100668.28;5075518;28;1209;-38
2024/01/25 07:20:26;;;;;;;;;;;;;;;17.08;35.78;100665.16;5075812;28;1909;-43
2024/01/25 07:22:51;;;;;;;;;;;;;;;15.77;38.02;100667.53;5076059;28;1147;-44
2024/01/25 07:25:17;;;;;;;;;;;;;;;15.31;39.17;100676.91;5062325;28;2593;-42
2024/01/25 07:27:46;;;;;;;;;;;;;;;15.06;39.59;100660.03;5074770;28;1059;-45
2024/01/25 07:30:12;;;;;;;;;;;;;;;17.01;35.93;100661.28;5076070;28;1066;-46
2024/01/25 07:32:38;;;;;;;;;;;;;;;15.50;38.81;100662.34;5075658;28;912;-44
2024/01/25 07:35:04;;;;;;;;;;;;;;;17.04;36.19;100649.56;5062905;28;1249;-41
2024/01/25 07:37:30;;;;;;;;;;;;;;;16.45;36.65;100653.00;5061860;28;1122;-44
2024/01/25 07:39:55;;;;;;;;;;;;;;;15.55;38.42;100653.13;5071478;28;1910;-43
2024/01/25 07:42:21;;;;;;;;;;;;;;;15.23;39.45;100645.59;5075167;28;1094;-45
2024/01/25 07:44:46;;;;;;;;;;;;;;;17.07;36.05;100638.69;5075266;28;1060;-40
2024/01/25 07:47:13;;;;;;;;;;;;;;;15.64;38.45;100641.03;5075843;28;1043;-43
2024/01/25 07:49:40;;;;;;;;;;;;;;;15.17;39.29;100638.94;5075555;28;1008;-47
2024/01/25 07:52:05;;;;;;;;;;;;;;;16.34;37.60;100634.34;5075885;28;1011;-45
2024/01/25 07:54:31;;;;;;;;;;;;;;;15.86;38.12;100639.50;5075213;28;2381;-44
2024/01/25 07:56:56;;;;;;;;;;;;;;;15.16;39.34;100631.94;5075575;28;996;-44
2024/01/25 07:59:22;;;;;;;;;;;;;;;16.25;37.43;100620.81;5063246;28;1058;-40
2024/01/25 08:01:47;;;;;;;;;;;;;;;15.96;37.54;100629.06;5068994;28;1909;-41
2024/01/25 08:04:13;;;;;;;;;;;;;;;15.15;39.58;100638.19;5068281;28;1003;-42
2024/01/25 08:06:38;;;;;;;;;;;;;;;16.32;37.79;100644.22;5070178;28;1105;-44
2024/01/25 08:09:04;;;;;;;;;;;;;;;15.87;37.71;100646.50;5075613;28;994;-44
2024/01/25 08:11:29;;;;;;;;;;;;;;;15.53;38.96;100662.97;5075317;28;1047;-44
2024/01/25 08:13:55;;;;;;;;;;;;;;;17.20;35.62;100655.41;5075610;28;1166;-40
2024/01/25 08:16:20;;;;;;;;;;;;;;;15.71;38.28;100662.66;5079113;28;991;-43
2024/01/25 08:18:47;;;;;;;;;;;;;;;15.18;39.74;100664.47;5079002;28;1118;-42
2024/01/25 08:21:12;;;;;;;;;;;;;;;17.19;35.79;100659.06;5078854;28;1910;-42
2024/01/25 08:23:39;;;;;;;;;;;;;;;16.14;37.17;100676.47;5079372;28;2357;-41
2024/01/25 08:26:05;;;;;;;;;;;;;;;15.38;39.14;100675.50;5079291;28;1027;-46
2024/01/25 08:28:30;;;;;;;;;;;;;;;15.06;39.59;100666.16;5079393;28;1098;-45
2024/01/25 08:30:56;;;;;;;;;;;;;;;17.27;35.82;100665.59;5079385;28;1166;-42
2024/01/25 08:33:21;;;;;;;;;;;;;;;15.80;38.45;100671.75;5079193;28;1246;-42
2024/01/25 08:35:47;;;;;;;;;;;;;;;15.16;39.37;100666.38;5079461;28;1018;-43
2024/01/25 08:38:12;;;;;;;;;;;;;;;17.09;35.94;100658.06;5079382;28;996;-44
2024/01/25 08:40:38;;;;;;;;;;;;;;;16.07;37.74;100660.16;5079386;28;1906;-45
2024/01/25 08:43:04;;;;;;;;;;;;;;;15.29;39.41;100673.50;5078894;28;1050;-46
2024/01/25 08:45:30;;;;;;;;;;;;;;;17.22;35.73;100672.09;5079007;28;1125;-42
2024/01/25 08:47:56;;;;;;;;;;;;;;;15.87;38.06;100673.03;5079078;28;1035;-45
2024/01/25 08:50:22;;;;;;;;;;;;;;;15.19;39.34;100673.28;5078678;28;1146;-43
2024/01/25 08:52:47;;;;;;;;;;;;;;;17.37;35.46;100674.53;5078994;28;1062;-42
2024/01/25 08:55:13;;;;;;;;;;;;;;;15.88;38.05;100680.00;5078273;28;1844;-45
2024/01/25 08:57:40;;;;;;;;;;;;;;;15.39;39.42;100687.81;5067514;28;987;-45
2024/01/25 09:00:12;;;;;;;;;;;;;;;17.13;36.08;100686.13;5058356;28;1985;-39
2024/01/25 09:02:38;;;;;;;;;;;;;;;15.78;38.58;100687.78;5071450;28;1008;-41
2024/01/25 09:05:04;;;;;;;;;;;;;;;15.28;39.12;100685.06;5078448;28;1031;-43
2024/01/25 09:07:30;;;;;;;;;;;;;;;16.90;36.67;100670.06;5069745;28;1138;-40
2024/01/25 09:09:55;;;;;;;;;;;;;;;15.58;38.71;100667.13;5078423;28;1125;-40
2024/01/25 09:12:21;;;;;;;;;;;;;;;16.64;36.99;100672.88;5078265;28;1030;-41
2024/01/25 09:14:46;;;;;;;;;;;;;;;16.69;36.61;100668.06;5078236;28;1035;-45
2024/01/25 09:17:13;;;;;;;;;;;;;;;15.60;39.04;100665.22;5078753;28;1118;-40
2024/01/25 09:19:39;;;;;;;;;;;;;;;16.61;37.12;100670.44;5077948;28;1902;-45
2024/01/25 09:22:07;;;;;;;;;;;;;;;16.48;36.74;100666.03;5078510;28;1075;-41
2024/01/25 09:24:35;;;;;;;;;;;;;;;15.61;38.65;100677.53;5076647;28;2470;-40
2024/01/25 09:27:02;;;;;;;;;;;;;;;15.14;39.96;100673.59;5077277;28;1082;-39
2024/01/25 09:29:28;;;;;;;;;;;;;;;17.06;36.40;100675.06;5078301;28;1023;-39
2024/01/25 09:31:54;;;;;;;;;;;;;;;15.96;37.95;100676.84;5078204;28;1102;-37
2024/01/25 09:34:19;;;;;;;;;;;;;;;17.15;36.03;100660.25;5077984;28;1005;-42
2024/01/25 09:36:45;;;;;;;;;;;;;;;17.25;35.54;100652.41;5065042;28;1090;-40
2024/01/25 09:39:10;;;;;;;;;;;;;;;16.03;38.00;100656.88;5064528;28;1139;-40
2024/01/25 09:41:36;;;;;;;;;;;;;;;15.46;38.81;100677.63;5078325;28;1902;-40
2024/01/25 09:44:02;;;;;;;;;;;;;;;15.22;39.73;100662.47;5063856;28;1030;-39
2024/01/25 09:46:27;;;;;;;;;;;;;;;16.98;36.60;100651.72;5078099;28;1031;-38
2024/01/25 09:48:53;;;;;;;;;;;;;;;15.78;38.65;100655.13;5077919;28;1131;-41
2024/01/25 09:51:18;;;;;;;;;;;;;;;15.95;38.32;100653.06;5077610;28;1518;-38
2024/01/25 09:53:44;;;;;;;;;;;;;;;16.63;36.65;100648.13;5077388;28;2253;-40
2024/01/25 09:56:10;;;;;;;;;;;;;;;15.64;38.96;100641.03;5076370;28;1061;-41
2024/01/25 09:58:40;;;;;;;;;;;;;;;15.23;39.59;100650.06;5064311;28;1281;-40
2024/01/25 10:01:10;;;;;;;;;;;;;;;16.97;36.34;100642.06;5077829;28;1901;-39
2024/01/25 10:03:35;;;;;;;;;;;;;;;15.65;38.56;100640.06;5078027;28;1134;-41
2024/01/25 10:06:01;;;;;;;;;;;;;;;16.07;38.38;100632.75;5077264;28;1422;-41
2024/01/25 10:08:26;;;;;;;;;;;;;;;16.22;37.47;100626.34;5077623;28;950;-40
2024/01/25 10:10:55;;;;;;;;;;;;;;;15.27;39.74;100628.56;5076661;28;1018;-42
2024/01/25 10:13:20;;;;;;;;;;;;;;;16.12;38.43;100634.13;5065212;28;1039;-42
2024/01/25 10:15:47;;;;;;;;;;;;;;;15.85;38.41;100623.69;5076492;28;1067;-41
2024/01/25 10:18:15;;;;;;;;;;;;;;;15.74;38.88;100627.09;5065200;28;1195;-39
2024/01/25 10:20:44;;;;;;;;;;;;;;;17.25;35.73;100623.16;5076553;28;1905;-39
2024/01/25 10:23:09;;;;;;;;;;;;;;;15.73;38.50;100620.94;5077396;28;980;-41
2024/01/25 10:25:35;;;;;;;;;;;;;;;15.32;39.58;100624.72;5076748;28;2496;-39
2024/01/25 10:28:02;;;;;;;;;;;;;;;15.94;38.94;100620.38;5076971;28;1122;-41
2024/01/25 10:30:28;;;;;;;;;;;;;;;15.93;38.41;100610.72;5076983;28;1202;-41
2024/01/25 10:32:54;;;;;;;;;;;;;;;16.35;37.73;100606.88;5075531;28;1115;-39
2024/01/25 10:35:19;;;;;;;;;;;;;;;17.81;34.99;100609.97;5075394;28;1067;-41
2024/01/25 10:37:45;;;;;;;;;;;;;;;16.06;37.83;100617.81;5071668;28;1170;-43
2024/01/25 10:40:11;;;;;;;;;;;;;;;15.52;39.07;100610.06;5060513;28;1977;-38
2024/01/25 10:42:37;;;;;;;;;;;;;;;15.34;39.99;100607.78;5056861;28;1408;-39
2024/01/25 10:45:04;;;;;;;;;;;;;;;16.74;36.74;100606.63;5068290;28;1109;-41
2024/01/25 10:47:34;;;;;;;;;;;;;;;15.48;39.16;100614.72;5066979;28;1198;-39
2024/01/25 10:50:00;;;;;;;;;;;;;;;15.57;39.47;100612.38;5076923;28;1122;-40
2024/01/25 10:52:26;;;;;;;;;;;;;;;17.49;35.60;100603.59;5076489;28;1089;-38
2024/01/25 10:54:51;;;;;;;;;;;;;;;15.87;38.66;100600.53;5071870;28;1826;-40
2024/01/25 10:57:17;;;;;;;;;;;;;;;15.26;39.87;100602.16;5075456;28;1234;-39
2024/01/25 10:59:42;;;;;;;;;;;;;;;15.49;39.87;100605.84;5076271;28;1984;-37
2024/01/25 11:02:08;;;;;;;;;;;;;;;16.38;37.42;100604.81;5076505;28;1027;-42
2024/01/25 11:04:34;;;;;;;;;;;;;;;15.40;39.57;100611.78;5076897;28;1062;-40
2024/01/25 11:07:06;;;;;;;;;;;;;;;15.04;40.18;100609.78;5076021;28;1242;-45
2024/01/25 11:09:32;;;;;;;;;;;;;;;15.89;39.03;100607.44;5073888;28;1079;-40
2024/01/25 11:11:58;;;;;;;;;;;;;;;15.68;38.83;100593.94;5076465;28;1112;-42
2024/01/25 11:14:24;;;;;;;;;;;;;;;15.12;40.00;100611.91;5075927;28;1201;-43
2024/01/25 11:16:50;;;;;;;;;;;;;;;15.53;39.66;100601.19;5075852;28;1015;-43
2024/01/25 11:19:19;;;;;;;;;;;;;;;16.66;37.03;100607.22;5076240;28;1107;-41
2024/01/25 11:21:48;;;;;;;;;;;;;;;15.38;39.50;100600.47;5075951;28;1910;-41
2024/01/25 11:24:19;;;;;;;;;;;;;;;16.85;37.26;100604.00;5075994;28;2473;-43
2024/01/25 11:26:45;;;;;;;;;;;;;;;16.00;38.20;100601.38;5075819;28;1046;-41
2024/01/25 11:29:17;;;;;;;;;;;;;;;15.30;39.99;100593.88;5076343;28;1137;-40
2024/01/25 11:31:46;;;;;;;;;;;;;;;15.48;39.93;100603.31;5075533;28;1027;-42
2024/01/25 11:34:12;;;;;;;;;;;;;;;16.67;37.06;100592.97;5073368;28;1151;-46
2024/01/25 11:36:38;;;;;;;;;;;;;;;15.41;39.79;100593.09;5076081;28;1115;-45
2024/01/25 11:39:03;;;;;;;;;;;;;;;16.38;38.02;100591.53;5075828;28;1142;-40
2024/01/25 11:41:30;;;;;;;;;;;;;;;16.02;38.20;100594.16;5075541;28;1954;-44
2024/01/25 11:43:56;;;;;;;;;;;;;;;15.35;39.66;100596.19;5068894;28;1070;-44
2024/01/25 11:46:21;;;;;;;;;;;;;;;16.80;37.42;100592.03;5073170;28;877;-44
2024/01/25 11:48:47;;;;;;;;;;;;;;;16.27;37.83;100587.03;5075272;28;940;-41
2024/01/25 11:51:12;;;;;;;;;;;;;;;15.47;39.32;100591.84;5075324;28;1110;-43
2024/01/25 11:53:38;;;;;;;;;;;;;;;15.17;40.28;100590.38;5071035;28;1844;-45
2024/01/25 11:56:04;;;;;;;;;;;;;;;17.04;36.67;100585.78;5076250;28;1074;-45
2024/01/25 11:58:30;;;;;;;;;;;;;;;15.98;38.36;100589.16;5073636;28;1269;-46
2024/01/25 12:00:55;;;;;;;;;;;;;;;15.29;40.16;100591.34;5075548;28;1971;-44
2024/01/25 12:03:21;;;;;;;;;;;;;;;16.97;36.63;100586.25;5075801;28;1145;-42
2024/01/25 12:05:46;;;;;;;;;;;;;;;15.57;39.51;100593.81;5074377;28;1088;-44
2024/01/25 12:08:12;;;;;;;;;;;;;;;16.61;37.82;100596.09;5062227;28;1070;-42
2024/01/25 12:10:38;;;;;;;;;;;;;;;16.30;37.80;100591.25;5075810;28;832;-44
2024/01/25 12:13:03;;;;;;;;;;;;;;;15.46;39.92;100594.59;5075504;28;1186;-46
2024/01/25 12:15:32;;;;;;;;;;;;;;;16.69;37.39;100590.19;5075632;28;1225;-42
2024/01/25 12:17:58;;;;;;;;;;;;;;;15.94;38.63;100592.97;5075683;28;1073;-46
2024/01/25 12:20:23;;;;;;;;;;;;;;;16.41;37.92;100598.44;5075602;28;1969;-44
2024/01/25 12:22:49;;;;;;;;;;;;;;;17.47;35.71;100598.38;5068851;28;1123;-41
2024/01/25 12:25:14;;;;;;;;;;;;;;;15.93;38.90;100596.59;5068744;28;2522;-44
2024/01/25 12:27:41;;;;;;;;;;;;;;;15.40;40.03;100591.44;5075132;28;1137;-42
2024/01/25 12:30:08;;;;;;;;;;;;;;;16.78;37.51;100586.84;5075155;28;1182;-42
2024/01/25 12:32:33;;;;;;;;;;;;;;;16.56;37.30;100595.59;5075330;28;1081;-44
2024/01/25 12:35:02;;;;;;;;;;;;;;;15.69;39.46;100584.16;5075239;28;992;-44
2024/01/25 12:37:27;;;;;;;;;;;;;;;15.27;39.96;100587.94;5074751;28;1101;-44
2024/01/25 12:39:53;;;;;;;;;;;;;;;17.20;36.80;100588.97;5075151;28;1967;-43